createdAt,value
2022-12-31T00:00:24.803Z,9.02
2022-12-31T00:03:27.978Z,10.07
2022-12-31T00:06:33.121Z,10.98
2022-12-31T00:09:36.315Z,9.55
2022-12-31T00:12:38.913Z,8.50
2022-12-31T00:15:43.044Z,8.82
2022-12-31T00:18:47.676Z,8.50
2022-12-31T00:21:51.037Z,8.88
2022-12-31T00:24:53.751Z,9.48
2022-12-31T00:27:56.592Z,9.18
2022-12-31T00:31:09.696Z,10.18
2022-12-31T00:34:12.692Z,9.02
2022-12-31T00:37:15.334Z,10.02
2022-12-31T00:40:18.322Z,8.75
2022-12-31T00:43:20.870Z,8.77
2022-12-31T00:46:25.090Z,9.15
2022-12-31T00:49:27.827Z,8.15
2022-12-31T00:52:30.703Z,9.25
2022-12-31T00:55:33.322Z,9.05
2022-12-31T00:58:37.418Z,10.07
2022-12-31T01:01:40.840Z,8.07
2022-12-31T01:04:44.633Z,8.57
2022-12-31T01:07:47.262Z,8.65
2022-12-31T01:11:08.878Z,8.75
2022-12-31T01:14:15.274Z,10.25
2022-12-31T01:17:18.119Z,9.63
2022-12-31T01:20:20.991Z,10.15
2022-12-31T01:23:23.839Z,8.90
2022-12-31T01:26:26.795Z,9.40
2022-12-31T01:29:29.863Z,10.55
2022-12-31T01:32:32.907Z,9.07
2022-12-31T01:35:36.506Z,8.30
2022-12-31T01:38:39.209Z,8.60
2022-12-31T01:41:44.839Z,7.30
2022-12-31T01:44:55.968Z,6.78
2022-12-31T01:48:00.284Z,6.22
2022-12-31T01:51:03.250Z,6.32
2022-12-31T01:54:10.801Z,7.30
2022-12-31T01:57:14.332Z,5.72
2022-12-31T02:00:17.603Z,6.55
2022-12-31T02:03:22.787Z,6.62
2022-12-31T02:06:38.578Z,7.70
2022-12-31T02:09:42.643Z,7.20
2022-12-31T02:12:46.256Z,7.18
2022-12-31T02:16:08.086Z,6.35
2022-12-31T02:19:49.331Z,7.18
2022-12-31T02:23:16.918Z,8.98
2022-12-31T02:27:04.251Z,6.90
2022-12-31T02:30:08.982Z,6.47
2022-12-31T02:33:19.260Z,6.47
2022-12-31T02:36:27.977Z,6.95
2022-12-31T02:42:34.550Z,5.72
2022-12-31T02:45:47.543Z,7.68
2022-12-31T02:49:02.360Z,7.87
2022-12-31T02:52:21.189Z,7.65
2022-12-31T02:55:24.022Z,6.22
2022-12-31T02:58:57.490Z,7.40
2022-12-31T03:02:15.995Z,6.68
2022-12-31T03:05:23.287Z,8.98
2022-12-31T03:08:26.874Z,8.75
2022-12-31T03:11:48.105Z,7.68
2022-12-31T03:14:51.504Z,8.75
2022-12-31T03:18:07.517Z,9.48
2022-12-31T03:21:32.022Z,8.40
2022-12-31T03:24:53.304Z,8.88
2022-12-31T03:27:56.822Z,8.75
2022-12-31T03:31:02.494Z,7.47
2022-12-31T03:34:05.329Z,8.02
2022-12-31T03:37:08.031Z,7.90
2022-12-31T03:40:13.656Z,7.50
2022-12-31T03:43:16.941Z,7.90
2022-12-31T03:46:19.869Z,7.45
2022-12-31T03:49:22.440Z,7.45
2022-12-31T03:52:26.043Z,7.07
2022-12-31T03:55:28.757Z,7.30
2022-12-31T03:58:31.618Z,8.18
2022-12-31T04:01:34.236Z,7.85
2022-12-31T04:04:37.080Z,7.90
2022-12-31T04:07:40.109Z,7.60
2022-12-31T04:10:43.151Z,8.90
2022-12-31T04:13:45.814Z,9.35
2022-12-31T04:16:48.645Z,8.68
2022-12-31T04:19:51.369Z,9.65
2022-12-31T04:22:54.278Z,9.50
2022-12-31T04:25:57.035Z,11.10
2022-12-31T04:28:59.945Z,10.30
2022-12-31T04:32:03.431Z,9.57
2022-12-31T04:35:07.478Z,9.73
2022-12-31T04:38:10.326Z,8.73
2022-12-31T04:41:19.794Z,8.63
2022-12-31T04:44:22.440Z,10.15
2022-12-31T04:47:25.231Z,9.98
2022-12-31T04:50:27.867Z,10.07
2022-12-31T04:53:31.519Z,11.23
2022-12-31T04:56:36.649Z,9.60
2022-12-31T04:59:39.893Z,10.27
2022-12-31T05:02:42.608Z,13.20
2022-12-31T05:05:45.566Z,10.20
2022-12-31T05:08:49.255Z,11.25
2022-12-31T05:11:52.175Z,11.45
2022-12-31T05:14:54.730Z,13.48
2022-12-31T05:17:57.601Z,11.05
2022-12-31T05:21:02.621Z,12.23
2022-12-31T05:24:05.941Z,11.95
2022-12-31T05:27:10.839Z,10.27
2022-12-31T05:30:14.501Z,10.90
2022-12-31T05:33:18.423Z,11.35
2022-12-31T05:36:21.260Z,11.48
2022-12-31T05:39:24.240Z,12.68
2022-12-31T05:42:28.387Z,10.40
2022-12-31T05:45:31.461Z,10.00
2022-12-31T05:48:34.625Z,10.27
2022-12-31T05:51:37.232Z,12.07
2022-12-31T05:54:40.072Z,10.70
2022-12-31T05:57:42.718Z,10.48
2022-12-31T06:00:46.196Z,11.80
2022-12-31T06:03:49.182Z,10.05
2022-12-31T06:06:52.040Z,11.27
2022-12-31T06:09:55.153Z,8.43
2022-12-31T06:12:57.952Z,11.05
2022-12-31T06:16:07.976Z,11.02
2022-12-31T06:19:10.712Z,9.23
2022-12-31T06:22:13.922Z,12.27
2022-12-31T06:25:16.526Z,9.95
2022-12-31T06:28:20.579Z,10.80
2022-12-31T06:31:23.432Z,11.30
2022-12-31T06:34:26.396Z,11.55
2022-12-31T06:37:28.988Z,11.80
2022-12-31T06:40:31.883Z,12.32
2022-12-31T06:43:35.171Z,10.93
2022-12-31T06:46:38.270Z,12.52
2022-12-31T06:49:40.891Z,11.57
2022-12-31T06:52:43.959Z,10.95
2022-12-31T06:55:48.919Z,11.65
2022-12-31T06:58:52.925Z,11.05
2022-12-31T07:02:17.396Z,9.55
2022-12-31T07:05:41.988Z,11.02
2022-12-31T07:09:04.475Z,11.73
2022-12-31T07:12:25.088Z,10.25
2022-12-31T07:16:00.037Z,10.68
2022-12-31T07:19:15.083Z,9.73
2022-12-31T07:22:18.035Z,10.02
2022-12-31T07:25:23.499Z,10.63
2022-12-31T07:28:32.041Z,8.95
2022-12-31T07:32:11.247Z,12.13
2022-12-31T07:36:01.369Z,11.50
2022-12-31T07:39:14.869Z,10.63
2022-12-31T07:42:33.143Z,10.25
2022-12-31T07:48:45.039Z,9.82
2022-12-31T07:51:48.167Z,12.80
2022-12-31T07:54:51.372Z,10.18
2022-12-31T07:58:19.251Z,10.45
2022-12-31T08:01:34.804Z,13.00
2022-12-31T08:04:59.183Z,11.70
2022-12-31T08:08:38.841Z,10.52
2022-12-31T08:11:52.473Z,12.18
2022-12-31T08:14:55.201Z,11.27
2022-12-31T08:17:58.364Z,11.00
2022-12-31T08:21:34.663Z,10.75
2022-12-31T08:24:47.891Z,14.05
2022-12-31T08:28:05.705Z,12.13
2022-12-31T08:34:40.958Z,9.20
2022-12-31T08:37:54.062Z,10.93
2022-12-31T08:41:15.403Z,11.75
2022-12-31T08:44:24.638Z,11.00
2022-12-31T08:48:00.021Z,11.45
2022-12-31T08:51:05.445Z,13.00
2022-12-31T08:54:12.369Z,12.10
2022-12-31T08:57:23.261Z,11.77
2022-12-31T09:00:27.627Z,11.45
2022-12-31T09:03:42.796Z,11.73
2022-12-31T09:06:59.659Z,9.55
2022-12-31T09:10:11.522Z,11.65
2022-12-31T09:13:38.117Z,11.30
2022-12-31T09:16:52.290Z,11.02
2022-12-31T09:19:55.582Z,11.30
2022-12-31T09:22:59.984Z,12.60
2022-12-31T09:26:27.621Z,11.77
2022-12-31T09:29:39.954Z,11.27
2022-12-31T09:33:09.011Z,11.48
2022-12-31T09:36:39.417Z,12.00
2022-12-31T09:39:47.751Z,12.52
2022-12-31T09:43:22.928Z,13.10
2022-12-31T09:46:50.426Z,14.82
2022-12-31T09:50:18.651Z,11.07
2022-12-31T09:53:54.796Z,10.30
2022-12-31T09:57:04.967Z,12.25
2022-12-31T10:00:39.270Z,13.73
2022-12-31T10:04:01.303Z,15.52
2022-12-31T10:07:22.374Z,13.15
2022-12-31T10:10:38.082Z,14.90
2022-12-31T10:13:59.756Z,15.70
2022-12-31T10:17:19.638Z,14.45
2022-12-31T10:20:57.944Z,14.87
2022-12-31T10:24:20.148Z,12.73
2022-12-31T10:27:49.672Z,17.00
2022-12-31T10:31:19.967Z,16.15
2022-12-31T10:34:25.486Z,14.07
2022-12-31T10:37:32.798Z,18.12
2022-12-31T10:41:00.200Z,15.85
2022-12-31T10:44:29.371Z,15.93
2022-12-31T10:48:09.258Z,15.15
2022-12-31T10:51:34.302Z,15.68
2022-12-31T10:54:51.211Z,16.25
2022-12-31T10:58:24.957Z,15.63
2022-12-31T11:01:30.497Z,14.85
2022-12-31T11:04:44.858Z,13.88
2022-12-31T11:07:56.715Z,14.63
2022-12-31T11:11:17.216Z,14.68
2022-12-31T11:14:38.725Z,14.98
2022-12-31T11:18:03.080Z,13.80
2022-12-31T11:21:27.775Z,16.37
2022-12-31T11:24:58.258Z,15.02
2022-12-31T11:28:19.144Z,15.50
2022-12-31T11:31:52.905Z,15.07
2022-12-31T11:35:02.466Z,15.45
2022-12-31T11:38:16.503Z,16.87
2022-12-31T11:41:39.731Z,15.93
2022-12-31T11:45:07.475Z,16.17
2022-12-31T11:48:30.946Z,17.17
2022-12-31T11:52:11.777Z,17.98
2022-12-31T11:55:38.891Z,17.17
2022-12-31T11:58:49.920Z,16.13
2022-12-31T12:02:00.675Z,19.67
2022-12-31T12:05:10.983Z,17.77
2022-12-31T12:08:15.461Z,15.95
2022-12-31T12:11:23.704Z,20.12
2022-12-31T12:14:35.243Z,20.12
2022-12-31T12:17:39.299Z,18.73
2022-12-31T12:20:46.337Z,19.70
2022-12-31T12:23:57.233Z,19.17
2022-12-31T12:26:59.819Z,21.90
2022-12-31T12:30:18.048Z,21.35
2022-12-31T12:33:21.069Z,14.45
2022-12-31T12:36:23.980Z,20.33
2022-12-31T12:39:29.835Z,22.10
2022-12-31T12:42:32.927Z,17.23
2022-12-31T12:45:51.829Z,22.05
2022-12-31T12:48:57.334Z,17.30
2022-12-31T12:52:08.939Z,21.55
2022-12-31T12:55:27.316Z,18.55
2022-12-31T12:59:24.280Z,19.62
2022-12-31T13:02:35.949Z,16.40
2022-12-31T13:05:41.389Z,20.17
2022-12-31T13:08:52.079Z,21.00
2022-12-31T13:12:07.164Z,18.35
2022-12-31T13:15:22.470Z,19.10
2022-12-31T13:18:57.758Z,19.80
2022-12-31T13:22:16.713Z,18.05
2022-12-31T13:25:35.302Z,19.40
2022-12-31T13:28:42.905Z,17.25
2022-12-31T13:31:47.432Z,21.20
2022-12-31T13:34:56.656Z,19.27
2022-12-31T13:38:06.914Z,21.65
2022-12-31T13:41:30.481Z,18.52
2022-12-31T13:45:04.509Z,20.50
2022-12-31T13:48:16.407Z,17.77
2022-12-31T13:51:45.515Z,18.58
2022-12-31T13:55:03.692Z,17.27
2022-12-31T13:58:35.609Z,13.73
2022-12-31T14:01:51.757Z,17.35
2022-12-31T14:05:06.527Z,16.00
2022-12-31T14:08:09.983Z,17.02
2022-12-31T14:11:21.721Z,17.08
2022-12-31T14:14:36.652Z,14.60
2022-12-31T14:18:05.428Z,16.45
2022-12-31T14:21:14.456Z,18.48
2022-12-31T14:24:47.715Z,17.15
2022-12-31T14:27:54.413Z,17.40
2022-12-31T14:31:44.854Z,16.48
2022-12-31T14:35:06.025Z,17.08
2022-12-31T14:38:47.420Z,17.23
2022-12-31T14:42:01.124Z,17.08
2022-12-31T14:45:35.491Z,19.52
2022-12-31T14:48:56.365Z,16.83
2022-12-31T14:52:26.650Z,17.15
2022-12-31T14:55:34.948Z,15.20
2022-12-31T14:58:40.333Z,15.32
2022-12-31T15:01:46.191Z,15.60
2022-12-31T15:04:49.339Z,14.48
2022-12-31T15:07:51.955Z,16.15
2022-12-31T15:11:14.456Z,15.90
2022-12-31T15:14:17.004Z,17.62
2022-12-31T15:17:19.814Z,12.18
2022-12-31T15:20:46.017Z,15.98
2022-12-31T15:23:49.889Z,12.57
2022-12-31T15:26:58.669Z,13.77
2022-12-31T15:30:02.381Z,13.95
2022-12-31T15:33:29.051Z,15.63
2022-12-31T15:36:35.631Z,13.85
2022-12-31T15:39:41.493Z,15.20
2022-12-31T15:42:55.528Z,14.05
2022-12-31T15:45:59.689Z,13.52
2022-12-31T15:49:10.288Z,12.27
2022-12-31T15:52:25.208Z,13.93
2022-12-31T15:55:28.072Z,15.23
2022-12-31T15:58:35.783Z,13.10
2022-12-31T16:01:42.026Z,13.85
2022-12-31T16:04:45.162Z,13.98
2022-12-31T16:07:48.243Z,15.32
2022-12-31T16:10:53.847Z,13.93
2022-12-31T16:13:58.753Z,15.65
2022-12-31T16:17:02.328Z,15.70
2022-12-31T16:20:26.411Z,14.57
2022-12-31T16:23:29.408Z,14.65
2022-12-31T16:26:54.771Z,16.73
2022-12-31T16:30:02.019Z,15.60
2022-12-31T16:33:07.197Z,14.75
2022-12-31T16:36:21.860Z,15.32
2022-12-31T16:39:35.925Z,14.63
2022-12-31T16:42:44.244Z,13.68
2022-12-31T16:45:47.330Z,14.02
2022-12-31T16:48:55.176Z,15.55
2022-12-31T16:52:20.618Z,15.30
2022-12-31T16:55:26.101Z,14.13
2022-12-31T16:58:35.231Z,14.27
2022-12-31T17:01:38.935Z,14.73
2022-12-31T17:04:48.052Z,13.45
2022-12-31T17:07:55.199Z,13.77
2022-12-31T17:10:58.195Z,14.02
2022-12-31T17:14:13.119Z,13.73
2022-12-31T17:17:23.698Z,11.98
2022-12-31T17:20:29.749Z,14.52
2022-12-31T17:23:35.786Z,12.93
2022-12-31T17:26:38.749Z,15.10
2022-12-31T17:29:41.972Z,12.40
2022-12-31T17:32:45.996Z,18.25
2022-12-31T17:35:54.171Z,15.82
2022-12-31T17:39:16.598Z,16.70
2022-12-31T17:42:26.729Z,16.87
2022-12-31T17:45:29.760Z,16.58
2022-12-31T17:48:32.476Z,23.77
2022-12-31T17:51:35.504Z,18.10
2022-12-31T17:54:38.580Z,16.30
2022-12-31T17:57:52.545Z,14.05
2022-12-31T18:00:55.683Z,17.85
2022-12-31T18:03:58.973Z,16.10
2022-12-31T18:07:01.651Z,17.20
2022-12-31T18:10:04.920Z,16.08
2022-12-31T18:13:15.358Z,16.10
2022-12-31T18:16:18.208Z,15.57
2022-12-31T18:19:54.398Z,16.20
2022-12-31T18:22:45.967Z,16.12
2022-12-31T18:25:48.822Z,15.45
2022-12-31T18:28:52.484Z,15.45
2022-12-31T18:31:55.163Z,14.87
2022-12-31T18:34:58.240Z,15.00
2022-12-31T18:38:01.136Z,16.00
2022-12-31T18:41:04.428Z,15.05
2022-12-31T18:44:07.486Z,16.70
2022-12-31T18:47:13.392Z,18.17
2022-12-31T18:50:17.141Z,17.17
2022-12-31T18:53:22.385Z,17.45
2022-12-31T18:56:25.316Z,15.65
2022-12-31T18:59:28.512Z,15.73
2022-12-31T19:02:31.300Z,17.30
2022-12-31T19:05:37.394Z,16.70
2022-12-31T19:08:40.066Z,19.92
2022-12-31T19:11:43.178Z,21.12
2022-12-31T19:14:45.846Z,19.67
2022-12-31T19:17:48.731Z,20.33
2022-12-31T19:20:52.160Z,22.65
2022-12-31T19:23:55.205Z,21.12
2022-12-31T19:26:58.011Z,22.98
2022-12-31T19:30:01.392Z,23.42
2022-12-31T19:33:04.342Z,25.95
2022-12-31T19:36:14.761Z,22.17
2022-12-31T19:39:21.433Z,22.05
2022-12-31T19:42:25.315Z,23.77
2022-12-31T19:45:29.343Z,23.75
2022-12-31T19:48:33.069Z,25.52
2022-12-31T19:51:35.813Z,26.75
2022-12-31T19:54:38.718Z,26.52
2022-12-31T19:57:41.662Z,25.10
2022-12-31T20:00:51.584Z,29.20
2022-12-31T20:03:57.910Z,23.05
2022-12-31T20:07:00.544Z,24.60
2022-12-31T20:10:04.788Z,23.55
2022-12-31T20:13:09.545Z,26.62
2022-12-31T20:16:15.315Z,24.98
2022-12-31T20:19:18.741Z,22.85
2022-12-31T20:22:21.661Z,24.85
2022-12-31T20:25:25.538Z,21.92
2022-12-31T20:28:28.877Z,24.40
2022-12-31T20:31:31.542Z,24.65
2022-12-31T20:34:34.505Z,25.17
2022-12-31T20:37:37.148Z,24.65
2022-12-31T20:40:46.394Z,23.30
2022-12-31T20:43:50.046Z,25.10
2022-12-31T20:46:53.002Z,24.02
2022-12-31T20:50:12.290Z,22.35
2022-12-31T20:53:15.499Z,23.92
2022-12-31T20:56:18.732Z,24.60
2022-12-31T20:59:21.697Z,24.17
2022-12-31T21:02:39.173Z,24.35
2022-12-31T21:05:51.573Z,25.77
2022-12-31T21:08:55.969Z,23.98
2022-12-31T21:12:17.404Z,24.00
2022-12-31T21:15:21.672Z,24.67
2022-12-31T21:18:24.808Z,27.27
2022-12-31T21:21:27.753Z,27.17
2022-12-31T21:24:30.552Z,26.92
2022-12-31T21:27:33.228Z,24.25
2022-12-31T21:30:38.934Z,25.40
2022-12-31T21:33:47.771Z,24.10
2022-12-31T21:36:50.774Z,25.83
2022-12-31T21:39:53.358Z,24.80
2022-12-31T21:42:56.777Z,22.42
2022-12-31T21:46:07.348Z,28.87
2022-12-31T21:49:10.296Z,24.30
2022-12-31T21:52:26.265Z,23.02
2022-12-31T21:55:47.605Z,21.80
2022-12-31T21:59:15.129Z,22.95
2022-12-31T22:02:37.085Z,22.65
2022-12-31T22:05:59.946Z,19.37
2022-12-31T22:09:03.043Z,20.85
2022-12-31T22:12:06.297Z,18.50
2022-12-31T22:15:14.856Z,19.12
2022-12-31T22:18:19.090Z,18.67
2022-12-31T22:21:23.954Z,19.98
2022-12-31T22:24:26.898Z,21.45
2022-12-31T22:27:30.128Z,24.35
2022-12-31T22:30:34.257Z,19.98
2022-12-31T22:33:37.030Z,20.48
2022-12-31T22:36:39.941Z,21.02
2022-12-31T22:39:44.667Z,18.55
2022-12-31T22:42:48.040Z,19.58
2022-12-31T22:45:50.553Z,18.70
2022-12-31T22:48:56.921Z,21.00
2022-12-31T22:52:01.836Z,19.48
2022-12-31T22:55:08.965Z,19.95
2022-12-31T22:58:11.499Z,26.30
2022-12-31T23:01:22.768Z,23.52
2022-12-31T23:04:25.370Z,21.67
2022-12-31T23:07:28.264Z,20.25
2022-12-31T23:10:49.737Z,20.40
2022-12-31T23:14:11.250Z,22.30
2022-12-31T23:17:37.769Z,18.92
2022-12-31T23:20:59.192Z,20.37
2022-12-31T23:24:04.533Z,22.60
2022-12-31T23:27:08.440Z,23.40
2022-12-31T23:30:11.836Z,22.62
2022-12-31T23:33:17.475Z,23.42
2022-12-31T23:36:20.230Z,21.55
2022-12-31T23:39:23.321Z,25.92
2022-12-31T23:42:26.176Z,27.52
2022-12-31T23:45:33.133Z,31.52
2022-12-31T23:48:36.139Z,32.15
2022-12-31T23:51:40.268Z,32.97
2022-12-31T23:54:42.907Z,31.23
2022-12-31T23:57:45.944Z,33.15
